createdAt,value
2019-01-26T00:00:37.063Z,73.17
2019-01-26T00:01:41.809Z,61.42
2019-01-26T00:02:46.407Z,55.73
2019-01-26T00:03:51.017Z,59.38
2019-01-26T00:04:55.666Z,55.28
2019-01-26T00:06:00.282Z,54.42
2019-01-26T00:07:05.050Z,59.00
2019-01-26T00:08:10.625Z,53.23
2019-01-26T00:09:15.223Z,58.85
2019-01-26T00:10:19.838Z,55.85
2019-01-26T00:11:24.466Z,58.10
2019-01-26T00:12:30.142Z,57.35
2019-01-26T00:13:34.760Z,59.03
2019-01-26T00:14:39.335Z,60.03
2019-01-26T00:15:44.070Z,63.15
2019-01-26T00:16:48.775Z,60.17
2019-01-26T00:17:53.397Z,58.75
2019-01-26T00:18:58.075Z,56.20
2019-01-26T00:20:02.752Z,57.20
2019-01-26T00:21:07.390Z,57.53
2019-01-26T00:22:12.181Z,53.78
2019-01-26T00:23:16.852Z,59.93
2019-01-26T00:24:22.513Z,56.00
2019-01-26T00:25:27.094Z,66.75
2019-01-26T00:26:36.361Z,60.50
2019-01-26T00:27:38.924Z,57.75
2019-01-26T00:28:43.499Z,61.77
2019-01-26T00:29:48.115Z,53.35
2019-01-26T00:30:52.830Z,56.48
2019-01-26T00:31:57.548Z,66.77
2019-01-26T00:33:02.150Z,60.20
2019-01-26T00:34:07.705Z,67.65
2019-01-26T00:35:12.561Z,57.50
2019-01-26T00:36:17.172Z,60.50
2019-01-26T00:37:21.762Z,91.28
2019-01-26T00:38:26.346Z,63.70
2019-01-26T00:39:30.974Z,61.63
2019-01-26T00:40:35.568Z,55.73
2019-01-26T00:41:40.197Z,59.27
2019-01-26T00:42:44.755Z,54.93
2019-01-26T00:43:49.322Z,57.73
2019-01-26T00:44:53.920Z,76.07
2019-01-26T00:45:58.545Z,75.35
2019-01-26T00:47:03.221Z,68.10
2019-01-26T00:48:07.856Z,58.42
2019-01-26T00:49:13.521Z,79.55
2019-01-26T00:50:18.103Z,57.45
2019-01-26T00:51:22.707Z,63.63
2019-01-26T00:52:27.433Z,55.98
2019-01-26T00:53:32.130Z,104.83
2019-01-26T00:54:36.710Z,54.33
2019-01-26T00:55:41.321Z,64.32
2019-01-26T00:56:45.978Z,68.57
2019-01-26T00:57:50.694Z,76.30
2019-01-26T00:58:55.409Z,81.12
2019-01-26T01:00:00.165Z,54.93
2019-01-26T01:01:05.126Z,56.88
2019-01-26T01:02:09.718Z,54.98
2019-01-26T01:03:14.414Z,57.53
2019-01-26T01:04:18.984Z,56.13
2019-01-26T01:05:23.630Z,82.62
2019-01-26T01:06:28.274Z,56.75
2019-01-26T01:07:32.887Z,69.15
2019-01-26T01:08:37.470Z,51.42
2019-01-26T01:09:42.184Z,50.35
2019-01-26T01:10:46.935Z,54.48
2019-01-26T01:11:51.518Z,72.82
2019-01-26T01:12:56.119Z,54.38
2019-01-26T01:14:00.798Z,51.60
2019-01-26T01:15:06.118Z,57.27
2019-01-26T01:16:10.729Z,54.03
2019-01-26T01:17:15.354Z,77.22
2019-01-26T01:18:20.044Z,61.28
2019-01-26T01:19:24.671Z,65.55
2019-01-26T01:20:29.296Z,70.70
2019-01-26T01:21:33.889Z,57.65
2019-01-26T01:22:38.687Z,51.95
2019-01-26T01:23:43.436Z,56.55
2019-01-26T01:24:48.067Z,63.15
2019-01-26T01:25:52.691Z,64.87
2019-01-26T01:26:57.308Z,71.35
2019-01-26T01:28:01.876Z,51.85
2019-01-26T01:29:06.487Z,51.23
2019-01-26T01:30:14.340Z,57.45
2019-01-26T01:31:18.904Z,62.45
2019-01-26T01:32:23.539Z,53.10
2019-01-26T01:33:28.130Z,51.75
2019-01-26T01:34:32.763Z,65.47
2019-01-26T01:35:37.351Z,61.92
2019-01-26T01:36:41.970Z,60.52
2019-01-26T01:37:46.685Z,52.03
2019-01-26T01:38:51.259Z,50.85
2019-01-26T01:39:55.834Z,55.63
2019-01-26T01:41:00.475Z,56.25
2019-01-26T01:42:05.109Z,70.40
2019-01-26T01:43:09.759Z,56.25
2019-01-26T01:44:14.392Z,51.40
2019-01-26T01:45:20.035Z,58.58
2019-01-26T01:46:24.869Z,51.33
2019-01-26T01:47:29.524Z,55.05
2019-01-26T01:48:34.210Z,55.45
2019-01-26T01:49:38.955Z,64.80
2019-01-26T01:50:43.559Z,59.40
2019-01-26T01:51:48.126Z,55.40
2019-01-26T01:52:52.785Z,71.15
2019-01-26T01:53:57.381Z,58.28
2019-01-26T01:55:02.058Z,54.27
2019-01-26T01:56:06.728Z,61.42
2019-01-26T01:57:11.320Z,57.40
2019-01-26T01:58:15.906Z,52.40
2019-01-26T01:59:20.547Z,54.80
2019-01-26T02:00:26.069Z,64.75
2019-01-26T02:01:30.669Z,56.50
2019-01-26T02:02:35.256Z,56.15
2019-01-26T02:03:39.854Z,54.05
2019-01-26T02:04:44.442Z,52.62
2019-01-26T02:05:49.097Z,55.40
2019-01-26T02:06:54.633Z,51.92
2019-01-26T02:08:00.191Z,54.15
2019-01-26T02:09:08.222Z,53.17
2019-01-26T02:10:14.719Z,59.25
2019-01-26T02:11:19.294Z,46.68
2019-01-26T02:12:23.870Z,53.13
2019-01-26T02:13:28.518Z,49.18
2019-01-26T02:14:33.182Z,53.48
2019-01-26T02:15:37.823Z,50.63
2019-01-26T02:16:42.403Z,52.35
2019-01-26T02:17:47.059Z,56.37
2019-01-26T02:18:51.703Z,54.05
2019-01-26T02:19:56.308Z,50.60
2019-01-26T02:21:02.232Z,52.62
2019-01-26T02:22:06.863Z,63.78
2019-01-26T02:23:11.550Z,55.50
2019-01-26T02:24:16.193Z,57.45
2019-01-26T02:25:20.859Z,51.77
2019-01-26T02:26:25.426Z,50.85
2019-01-26T02:27:30.047Z,49.23
2019-01-26T02:28:34.678Z,50.23
2019-01-26T02:29:39.344Z,57.67
2019-01-26T02:30:44.136Z,46.77
2019-01-26T02:31:48.827Z,48.92
2019-01-26T02:32:54.680Z,50.83
2019-01-26T02:33:59.362Z,48.78
2019-01-26T02:35:04.430Z,53.65
2019-01-26T02:36:09.096Z,54.23
2019-01-26T02:37:13.689Z,47.50
2019-01-26T02:38:18.272Z,53.75
2019-01-26T02:39:22.905Z,55.33
2019-01-26T02:40:27.565Z,48.42
2019-01-26T02:41:32.254Z,48.85
2019-01-26T02:42:36.793Z,49.23
2019-01-26T02:43:41.410Z,58.52
2019-01-26T02:44:46.021Z,53.28
2019-01-26T02:45:50.696Z,49.38
2019-01-26T02:46:58.040Z,54.50
2019-01-26T02:48:01.575Z,55.43
2019-01-26T02:49:06.128Z,49.55
2019-01-26T02:50:12.683Z,59.60
2019-01-26T02:51:17.299Z,53.10
2019-01-26T02:52:21.886Z,56.85
2019-01-26T02:53:26.528Z,57.65
2019-01-26T02:54:31.136Z,57.50
2019-01-26T02:55:35.812Z,57.17
2019-01-26T02:56:40.375Z,59.77
2019-01-26T02:57:44.952Z,59.13
2019-01-26T02:58:49.611Z,53.55
2019-01-26T02:59:54.266Z,63.28
2019-01-26T03:00:58.844Z,63.38
2019-01-26T03:02:03.615Z,56.35
2019-01-26T03:03:08.257Z,58.25
2019-01-26T03:04:12.872Z,60.55
2019-01-26T03:05:17.606Z,62.00
2019-01-26T03:06:22.210Z,59.83
2019-01-26T03:07:26.793Z,61.37
2019-01-26T03:08:31.430Z,55.55
2019-01-26T03:09:36.091Z,60.15
2019-01-26T03:10:40.689Z,67.75
2019-01-26T03:11:45.255Z,62.08
2019-01-26T03:12:49.869Z,70.17
2019-01-26T03:13:54.420Z,68.42
2019-01-26T03:14:59.020Z,56.55
2019-01-26T03:16:03.804Z,94.62
2019-01-26T03:17:08.499Z,76.40
2019-01-26T03:18:13.133Z,68.10
2019-01-26T03:19:17.735Z,61.23
2019-01-26T03:20:22.544Z,67.95
2019-01-26T03:21:27.129Z,61.08
2019-01-26T03:22:31.737Z,67.65
2019-01-26T03:23:36.392Z,82.67
2019-01-26T03:24:40.981Z,63.58
2019-01-26T03:25:45.537Z,84.10
2019-01-26T03:26:50.130Z,83.30
2019-01-26T03:27:54.711Z,70.60
2019-01-26T03:28:59.340Z,71.62
2019-01-26T03:30:05.700Z,73.20
2019-01-26T03:31:10.394Z,64.45
2019-01-26T03:32:15.033Z,62.83
2019-01-26T03:33:19.594Z,71.20
2019-01-26T03:34:24.187Z,97.72
2019-01-26T03:35:28.754Z,72.15
2019-01-26T03:36:33.341Z,65.30
2019-01-26T03:37:37.993Z,63.78
2019-01-26T03:38:42.632Z,56.15
2019-01-26T03:39:47.227Z,63.87
2019-01-26T03:40:51.806Z,61.88
2019-01-26T03:41:56.399Z,80.15
2019-01-26T03:43:01.067Z,73.78
2019-01-26T03:44:05.819Z,62.40
2019-01-26T03:45:11.345Z,71.77
2019-01-26T03:46:16.017Z,60.98
2019-01-26T03:47:20.725Z,69.58
2019-01-26T03:48:25.338Z,63.80
2019-01-26T03:49:29.927Z,72.62
2019-01-26T03:50:34.500Z,69.65
2019-01-26T03:51:39.074Z,68.02
2019-01-26T03:52:43.993Z,79.47
2019-01-26T03:53:48.580Z,69.20
2019-01-26T03:54:53.771Z,64.07
2019-01-26T03:55:58.835Z,65.50
2019-01-26T03:57:03.479Z,70.67
2019-01-26T03:58:08.167Z,69.32
2019-01-26T03:59:13.962Z,73.57
2019-01-26T04:00:21.028Z,65.37
2019-01-26T04:01:26.509Z,84.37
2019-01-26T04:02:31.235Z,72.30
2019-01-26T04:03:35.956Z,72.95
2019-01-26T04:04:40.782Z,78.57
2019-01-26T04:05:45.350Z,71.57
2019-01-26T04:06:49.931Z,65.62
2019-01-26T04:07:54.539Z,60.17
2019-01-26T04:08:59.936Z,85.70
2019-01-26T04:10:05.521Z,68.60
2019-01-26T04:11:10.151Z,73.35
2019-01-26T04:12:15.035Z,70.52
2019-01-26T04:13:19.628Z,73.42
2019-01-26T04:14:24.352Z,72.97
2019-01-26T04:15:29.497Z,69.60
2019-01-26T04:16:34.530Z,61.55
2019-01-26T04:17:39.369Z,71.70
2019-01-26T04:18:44.036Z,68.52
2019-01-26T04:19:48.615Z,74.87
2019-01-26T04:20:53.320Z,65.10
2019-01-26T04:21:57.899Z,72.17
2019-01-26T04:23:02.696Z,69.30
2019-01-26T04:24:07.377Z,71.62
2019-01-26T04:25:12.671Z,71.00
2019-01-26T04:26:18.057Z,67.20
2019-01-26T04:27:22.711Z,69.05
2019-01-26T04:28:28.158Z,72.27
2019-01-26T04:29:33.389Z,64.40
2019-01-26T04:30:37.998Z,72.17
2019-01-26T04:31:43.291Z,76.17
2019-01-26T04:32:48.574Z,68.75
2019-01-26T04:33:53.286Z,63.20
2019-01-26T04:34:57.888Z,66.87
2019-01-26T04:36:02.501Z,71.17
2019-01-26T04:37:07.223Z,77.12
2019-01-26T04:38:11.858Z,66.33
2019-01-26T04:39:16.452Z,68.87
2019-01-26T04:40:21.105Z,69.58
2019-01-26T04:41:25.745Z,67.97
2019-01-26T04:42:30.534Z,73.83
2019-01-26T04:43:35.260Z,72.20
2019-01-26T04:44:39.912Z,64.35
2019-01-26T04:45:44.591Z,71.17
2019-01-26T04:46:49.266Z,68.02
2019-01-26T04:47:54.154Z,72.45
2019-01-26T04:48:58.940Z,68.28
2019-01-26T04:50:04.758Z,73.37
2019-01-26T04:51:09.518Z,66.97
2019-01-26T04:52:14.483Z,75.08
2019-01-26T04:53:19.096Z,68.25
2019-01-26T04:54:23.791Z,64.22
2019-01-26T04:55:28.381Z,70.20
2019-01-26T04:56:32.957Z,73.17
2019-01-26T04:57:38.075Z,66.57
2019-01-26T04:58:42.987Z,64.58
2019-01-26T04:59:47.561Z,79.15
2019-01-26T05:00:52.218Z,64.87
2019-01-26T05:01:56.822Z,67.22
2019-01-26T05:03:01.433Z,78.42
2019-01-26T05:04:06.014Z,99.87
2019-01-26T05:05:10.835Z,72.30
2019-01-26T05:06:15.499Z,65.83
2019-01-26T05:07:20.084Z,73.30
2019-01-26T05:08:24.710Z,95.30
2019-01-26T05:09:29.287Z,98.62
2019-01-26T05:10:33.888Z,84.87
2019-01-26T05:11:38.500Z,81.87
2019-01-26T05:12:43.140Z,76.55
2019-01-26T05:13:47.759Z,69.32
2019-01-26T05:14:52.356Z,71.77
2019-01-26T05:15:56.928Z,76.12
2019-01-26T05:17:01.526Z,67.10
2019-01-26T05:18:08.643Z,68.70
2019-01-26T05:19:13.423Z,69.80
2019-01-26T05:20:23.173Z,69.92
2019-01-26T05:21:27.813Z,70.05
2019-01-26T05:22:32.407Z,68.52
2019-01-26T05:23:37.228Z,72.42
2019-01-26T05:24:41.937Z,67.65
2019-01-26T05:25:46.503Z,90.62
2019-01-26T05:26:51.027Z,76.65
2019-01-26T05:27:55.703Z,69.92
2019-01-26T05:29:00.301Z,73.95
2019-01-26T05:30:07.169Z,78.80
2019-01-26T05:31:12.771Z,74.80
2019-01-26T05:32:17.467Z,77.58
2019-01-26T05:33:22.096Z,75.75
2019-01-26T05:34:26.711Z,79.92
2019-01-26T05:35:31.339Z,74.97
2019-01-26T05:36:35.963Z,78.65
2019-01-26T05:37:40.561Z,67.85
2019-01-26T05:38:45.650Z,79.58
2019-01-26T05:39:50.217Z,68.50
2019-01-26T05:40:54.855Z,68.42
2019-01-26T05:41:59.578Z,70.85
2019-01-26T05:43:04.256Z,72.35
2019-01-26T05:44:08.873Z,71.97
2019-01-26T05:45:16.883Z,80.45
2019-01-26T05:46:21.479Z,70.17
2019-01-26T05:47:26.301Z,76.10
2019-01-26T05:48:30.874Z,65.28
2019-01-26T05:49:35.482Z,70.20
2019-01-26T05:50:41.801Z,67.10
2019-01-26T05:51:46.472Z,65.78
2019-01-26T05:52:51.348Z,68.22
2019-01-26T05:53:56.058Z,70.62
2019-01-26T05:55:01.190Z,76.37
2019-01-26T05:56:05.893Z,63.73
2019-01-26T05:57:10.494Z,68.92
2019-01-26T05:58:15.227Z,69.75
2019-01-26T05:59:19.893Z,66.82
2019-01-26T06:00:32.976Z,64.10
2019-01-26T06:01:38.244Z,67.03
2019-01-26T06:02:42.897Z,67.80
2019-01-26T06:03:50.889Z,67.80
2019-01-26T06:04:55.547Z,68.87
2019-01-26T06:06:00.337Z,66.17
2019-01-26T06:07:05.294Z,61.80
2019-01-26T06:08:10.177Z,75.78
2019-01-26T06:09:14.833Z,78.78
2019-01-26T06:10:19.680Z,69.97
2019-01-26T06:11:24.481Z,68.80
2019-01-26T06:12:31.982Z,58.25
2019-01-26T06:13:36.710Z,76.28
2019-01-26T06:14:41.397Z,70.95
2019-01-26T06:15:45.997Z,69.97
2019-01-26T06:16:50.707Z,68.30
2019-01-26T06:17:55.479Z,78.35
2019-01-26T06:19:00.353Z,76.72
2019-01-26T06:20:06.269Z,73.00
2019-01-26T06:21:10.862Z,68.20
2019-01-26T06:22:15.566Z,74.95
2019-01-26T06:23:20.155Z,74.32
2019-01-26T06:24:24.902Z,75.25
2019-01-26T06:25:29.768Z,83.03
2019-01-26T06:26:34.476Z,74.67
2019-01-26T06:27:39.104Z,69.97
2019-01-26T06:28:43.824Z,81.35
2019-01-26T06:29:48.527Z,73.35
2019-01-26T06:30:53.119Z,83.92
2019-01-26T06:31:58.018Z,67.03
2019-01-26T06:33:02.676Z,74.40
2019-01-26T06:34:07.280Z,74.45
2019-01-26T06:35:12.618Z,74.82
2019-01-26T06:36:17.418Z,77.95
2019-01-26T06:37:22.483Z,74.10
2019-01-26T06:38:27.461Z,72.22
2019-01-26T06:39:32.056Z,79.10
2019-01-26T06:40:36.693Z,79.67
2019-01-26T06:41:41.287Z,83.50
2019-01-26T06:42:45.903Z,76.57
2019-01-26T06:43:50.545Z,72.95
2019-01-26T06:44:55.200Z,74.00
2019-01-26T06:45:59.922Z,76.17
2019-01-26T06:47:04.602Z,71.10
2019-01-26T06:48:09.284Z,67.30
2019-01-26T06:49:14.974Z,67.80
2019-01-26T06:50:26.432Z,78.35
2019-01-26T06:51:31.129Z,87.75
2019-01-26T06:52:35.731Z,87.12
2019-01-26T06:53:40.453Z,72.03
2019-01-26T06:54:46.314Z,87.22
2019-01-26T06:55:51.209Z,72.97
2019-01-26T06:56:55.795Z,73.85
2019-01-26T06:58:00.422Z,66.85
2019-01-26T06:59:05.203Z,65.37
2019-01-26T07:00:14.450Z,74.17
2019-01-26T07:01:19.359Z,76.55
2019-01-26T07:02:23.998Z,76.75
2019-01-26T07:03:28.595Z,74.65
2019-01-26T07:04:42.221Z,71.80
2019-01-26T07:05:54.212Z,73.15
2019-01-26T07:07:05.902Z,69.07
2019-01-26T07:08:14.776Z,80.22
2019-01-26T07:09:19.338Z,69.55
2019-01-26T07:10:23.910Z,74.32
2019-01-26T07:11:28.883Z,66.77
2019-01-26T07:12:33.573Z,68.83
2019-01-26T07:13:38.210Z,76.33
2019-01-26T07:14:42.762Z,75.40
2019-01-26T07:15:47.433Z,72.80
2019-01-26T07:16:52.035Z,79.77
2019-01-26T07:17:56.606Z,75.12
2019-01-26T07:19:01.729Z,70.17
2019-01-26T07:20:07.939Z,75.62
2019-01-26T07:21:12.626Z,69.15
2019-01-26T07:22:17.224Z,74.27
2019-01-26T07:23:21.884Z,69.80
2019-01-26T07:24:26.460Z,71.67
2019-01-26T07:25:31.059Z,65.60
2019-01-26T07:26:35.663Z,70.12
2019-01-26T07:27:40.427Z,75.90
2019-01-26T07:28:45.364Z,73.00
2019-01-26T07:29:49.954Z,73.05
2019-01-26T07:30:54.651Z,70.10
2019-01-26T07:31:59.258Z,70.40
2019-01-26T07:33:03.902Z,68.67
2019-01-26T07:34:08.534Z,69.95
2019-01-26T07:35:13.158Z,65.00
2019-01-26T07:36:17.746Z,79.80
2019-01-26T07:37:22.522Z,73.85
2019-01-26T07:38:27.163Z,68.78
2019-01-26T07:39:31.751Z,67.12
2019-01-26T07:40:36.384Z,73.15
2019-01-26T07:41:41.000Z,67.85
2019-01-26T07:42:45.558Z,70.45
2019-01-26T07:43:50.205Z,66.60
2019-01-26T07:44:54.913Z,66.80
2019-01-26T07:45:59.538Z,62.73
2019-01-26T07:47:04.155Z,67.40
2019-01-26T07:48:08.817Z,61.00
2019-01-26T07:49:13.587Z,69.75
2019-01-26T07:50:19.139Z,60.10
2019-01-26T07:51:23.738Z,78.07
2019-01-26T07:52:28.406Z,57.00
2019-01-26T07:53:33.107Z,83.10
2019-01-26T07:54:37.730Z,85.72
2019-01-26T07:55:42.403Z,74.80
2019-01-26T07:56:46.953Z,61.48
2019-01-26T07:57:51.607Z,52.00
2019-01-26T07:58:56.288Z,60.75
2019-01-26T08:00:00.938Z,56.53
2019-01-26T08:01:05.627Z,58.52
2019-01-26T08:02:10.230Z,58.87
2019-01-26T08:03:15.360Z,57.88
2019-01-26T08:04:19.971Z,79.17
2019-01-26T08:05:24.741Z,74.58
2019-01-26T08:06:29.359Z,65.20
2019-01-26T08:07:34.928Z,67.17
2019-01-26T08:08:39.609Z,62.45
2019-01-26T08:09:44.396Z,57.65
2019-01-26T08:10:49.979Z,65.45
2019-01-26T08:11:54.650Z,77.60
2019-01-26T08:12:59.321Z,55.25
2019-01-26T08:14:04.596Z,63.02
2019-01-26T08:15:11.443Z,55.98
2019-01-26T08:16:16.120Z,56.37
2019-01-26T08:17:20.837Z,53.17
2019-01-26T08:18:25.406Z,65.03
2019-01-26T08:19:30.199Z,60.70
2019-01-26T08:20:35.095Z,57.50
2019-01-26T08:21:39.711Z,52.55
2019-01-26T08:22:44.274Z,53.98
2019-01-26T08:23:48.924Z,61.28
2019-01-26T08:24:53.629Z,66.62
2019-01-26T08:25:58.401Z,55.73
2019-01-26T08:27:03.265Z,51.25
2019-01-26T08:28:11.639Z,58.38
2019-01-26T08:29:16.311Z,59.70
2019-01-26T08:30:25.390Z,52.20
2019-01-26T08:31:32.760Z,52.25
2019-01-26T08:32:37.430Z,58.45
2019-01-26T08:33:42.067Z,68.95
2019-01-26T08:34:46.770Z,54.05
2019-01-26T08:35:51.345Z,65.35
2019-01-26T08:36:55.930Z,61.25
2019-01-26T08:38:00.718Z,67.15
2019-01-26T08:39:07.907Z,64.12
2019-01-26T08:40:13.594Z,67.80
2019-01-26T08:41:18.180Z,66.75
2019-01-26T08:42:22.769Z,69.12
2019-01-26T08:43:27.409Z,56.28
2019-01-26T08:44:32.043Z,63.73
2019-01-26T08:45:36.818Z,58.75
2019-01-26T08:46:41.386Z,55.20
2019-01-26T08:47:46.175Z,56.90
2019-01-26T08:48:50.872Z,58.45
2019-01-26T08:49:55.550Z,61.42
2019-01-26T08:51:00.279Z,63.40
2019-01-26T08:52:05.189Z,59.08
2019-01-26T08:53:09.754Z,53.58
2019-01-26T08:54:14.345Z,61.70
2019-01-26T08:55:18.997Z,59.55
2019-01-26T08:56:23.594Z,53.52
2019-01-26T08:57:28.196Z,63.87
2019-01-26T08:58:32.806Z,58.48
2019-01-26T08:59:37.373Z,70.40
2019-01-26T09:00:42.042Z,66.25
2019-01-26T09:01:48.222Z,67.67
2019-01-26T09:03:12.437Z,71.90
2019-01-26T09:04:29.568Z,76.90
2019-01-26T09:05:39.791Z,58.87
2019-01-26T09:06:57.033Z,65.50
2019-01-26T09:08:01.709Z,70.10
2019-01-26T09:09:10.277Z,74.55
2019-01-26T09:10:14.888Z,65.60
2019-01-26T09:11:19.518Z,70.50
2019-01-26T09:12:24.267Z,68.33
2019-01-26T09:13:28.850Z,64.72
2019-01-26T09:14:33.492Z,59.58
2019-01-26T09:15:38.064Z,67.05
2019-01-26T09:16:42.872Z,59.18
2019-01-26T09:17:47.515Z,72.03
2019-01-26T09:18:52.330Z,64.77
2019-01-26T09:19:56.962Z,79.32
2019-01-26T09:21:01.608Z,77.58
2019-01-26T09:22:06.367Z,81.87
2019-01-26T09:23:10.973Z,79.58
2019-01-26T09:24:15.676Z,113.25
2019-01-26T09:25:20.267Z,61.95
2019-01-26T09:26:24.990Z,75.37
2019-01-26T09:27:29.618Z,59.67
2019-01-26T09:28:34.410Z,66.22
2019-01-26T09:29:39.122Z,65.32
2019-01-26T09:30:43.742Z,74.82
2019-01-26T09:31:48.386Z,56.95
2019-01-26T09:32:53.070Z,69.37
2019-01-26T09:33:57.647Z,65.30
2019-01-26T09:35:02.378Z,62.33
2019-01-26T09:36:07.039Z,60.70
2019-01-26T09:37:11.876Z,62.88
2019-01-26T09:38:16.484Z,61.13
2019-01-26T09:39:21.191Z,51.40
2019-01-26T09:40:25.953Z,58.28
2019-01-26T09:41:30.554Z,61.75
2019-01-26T09:42:35.271Z,60.20
2019-01-26T09:43:39.931Z,63.83
2019-01-26T09:44:44.586Z,66.72
2019-01-26T09:45:49.237Z,64.60
2019-01-26T09:46:53.822Z,60.90
2019-01-26T09:47:58.526Z,69.50
2019-01-26T09:49:03.128Z,57.45
2019-01-26T09:50:08.711Z,57.00
2019-01-26T09:51:13.491Z,66.40
2019-01-26T09:52:18.124Z,58.50
2019-01-26T09:53:22.756Z,68.30
2019-01-26T09:54:27.456Z,66.22
2019-01-26T09:55:32.154Z,62.95
2019-01-26T09:56:36.793Z,85.07
2019-01-26T09:57:41.461Z,61.53
2019-01-26T09:58:46.055Z,75.57
2019-01-26T09:59:50.744Z,66.80
2019-01-26T10:00:55.429Z,65.00
2019-01-26T10:02:00.102Z,55.33
2019-01-26T10:03:05.178Z,64.53
2019-01-26T10:04:11.372Z,64.62
2019-01-26T10:05:16.150Z,63.05
2019-01-26T10:06:20.738Z,54.83
2019-01-26T10:07:25.348Z,67.80
2019-01-26T10:08:29.978Z,56.23
2019-01-26T10:09:34.649Z,49.10
2019-01-26T10:10:39.372Z,59.67
2019-01-26T10:11:44.013Z,55.75
2019-01-26T10:12:48.698Z,56.05
2019-01-26T10:13:53.365Z,56.53
2019-01-26T10:14:58.323Z,51.83
2019-01-26T10:16:04.015Z,64.17
2019-01-26T10:17:08.686Z,52.25
2019-01-26T10:18:14.154Z,50.35
2019-01-26T10:19:19.020Z,42.93
2019-01-26T10:20:25.877Z,43.50
2019-01-26T10:21:30.530Z,77.72
2019-01-26T10:22:35.232Z,82.37
2019-01-26T10:23:40.054Z,62.25
2019-01-26T10:24:44.709Z,60.15
2019-01-26T10:25:49.480Z,45.28
2019-01-26T10:26:54.178Z,42.83
2019-01-26T10:27:59.042Z,42.67
2019-01-26T10:29:03.682Z,45.90
2019-01-26T10:30:12.704Z,41.40
2019-01-26T10:31:17.404Z,43.13
2019-01-26T10:32:22.295Z,46.30
2019-01-26T10:33:26.951Z,33.58
2019-01-26T10:34:31.564Z,38.25
2019-01-26T10:35:53.805Z,37.78
2019-01-26T10:37:02.231Z,41.08
2019-01-26T10:38:06.822Z,33.35
2019-01-26T10:39:18.397Z,32.23
2019-01-26T10:40:48.406Z,35.17
2019-01-26T10:42:10.539Z,38.15
2019-01-26T10:43:16.863Z,42.48
2019-01-26T10:44:29.267Z,38.17
2019-01-26T10:45:33.918Z,36.48
2019-01-26T10:46:38.515Z,36.55
2019-01-26T10:47:43.104Z,33.75
2019-01-26T10:48:47.797Z,39.18
2019-01-26T10:49:52.539Z,40.15
2019-01-26T10:50:57.281Z,40.88
2019-01-26T10:52:01.998Z,31.23
2019-01-26T10:53:07.770Z,33.48
2019-01-26T10:54:12.378Z,38.35
2019-01-26T10:55:18.045Z,32.95
2019-01-26T10:56:22.739Z,30.15
2019-01-26T10:57:27.442Z,39.03
2019-01-26T10:58:32.074Z,36.90
2019-01-26T10:59:36.651Z,35.45
2019-01-26T11:00:41.335Z,49.70
2019-01-26T11:01:46.022Z,41.85
2019-01-26T11:02:50.682Z,37.65
2019-01-26T11:03:55.322Z,47.03
2019-01-26T11:04:59.924Z,33.33
2019-01-26T11:06:04.815Z,28.12
2019-01-26T11:07:09.492Z,31.12
2019-01-26T11:08:14.215Z,34.95
2019-01-26T11:09:18.830Z,40.40
2019-01-26T11:10:23.721Z,37.63
2019-01-26T11:11:28.366Z,31.75
2019-01-26T11:12:33.034Z,34.50
2019-01-26T11:13:37.784Z,31.93
2019-01-26T11:14:42.431Z,27.32
2019-01-26T11:15:47.148Z,36.10
2019-01-26T11:16:52.076Z,29.30
2019-01-26T11:17:56.738Z,30.15
2019-01-26T11:19:07.689Z,32.30
2019-01-26T11:20:08.898Z,33.48
2019-01-26T11:21:13.564Z,29.98
2019-01-26T11:22:18.151Z,27.98
2019-01-26T11:23:22.971Z,31.37
2019-01-26T11:24:27.613Z,27.30
2019-01-26T11:25:32.499Z,26.48
2019-01-26T11:26:37.522Z,36.15
2019-01-26T11:27:42.242Z,37.00
2019-01-26T11:28:46.876Z,31.97
2019-01-26T11:29:51.455Z,30.00
2019-01-26T11:30:56.241Z,28.85
2019-01-26T11:32:00.890Z,32.10
2019-01-26T11:33:05.676Z,32.67
2019-01-26T11:34:10.316Z,34.40
2019-01-26T11:35:15.094Z,29.40
2019-01-26T11:36:19.762Z,30.90
2019-01-26T11:37:24.434Z,28.20
2019-01-26T11:38:29.156Z,31.65
2019-01-26T11:39:33.801Z,48.20
2019-01-26T11:40:38.522Z,34.95
2019-01-26T11:41:43.556Z,33.88
2019-01-26T11:42:48.631Z,26.42
2019-01-26T11:43:54.303Z,28.55
2019-01-26T11:45:08.443Z,25.82
2019-01-26T11:46:16.732Z,44.60
2019-01-26T11:47:21.554Z,28.85
2019-01-26T11:48:32.705Z,24.23
2019-01-26T11:49:39.298Z,27.65
2019-01-26T11:50:49.815Z,25.10
2019-01-26T11:52:11.713Z,43.85
2019-01-26T11:53:16.288Z,31.97
2019-01-26T11:54:20.961Z,24.67
2019-01-26T11:55:36.774Z,22.93
2019-01-26T11:56:47.890Z,28.50
2019-01-26T11:57:52.468Z,29.32
2019-01-26T11:58:57.048Z,24.10
2019-01-26T12:00:17.402Z,29.05
2019-01-26T12:01:32.159Z,26.95
2019-01-26T12:02:51.888Z,31.20
2019-01-26T12:04:19.839Z,30.37
2019-01-26T12:05:52.892Z,40.92
2019-01-26T12:07:04.230Z,24.60
2019-01-26T12:08:08.827Z,27.90
2019-01-26T12:09:15.465Z,29.23
2019-01-26T12:10:20.164Z,32.35
2019-01-26T12:11:24.763Z,31.07
2019-01-26T12:12:29.437Z,21.40
2019-01-26T12:13:34.198Z,24.23
2019-01-26T12:14:39.039Z,22.10
2019-01-26T12:15:43.665Z,23.40
2019-01-26T12:16:48.387Z,22.10
2019-01-26T12:17:53.207Z,20.23
2019-01-26T12:18:57.814Z,20.45
2019-01-26T12:20:02.438Z,21.48
2019-01-26T12:21:08.068Z,21.75
2019-01-26T12:22:12.750Z,21.33
2019-01-26T12:23:17.413Z,19.55
2019-01-26T12:24:22.012Z,21.75
2019-01-26T12:25:26.648Z,24.10
2019-01-26T12:26:31.351Z,17.45
2019-01-26T12:27:36.207Z,23.52
2019-01-26T12:28:40.931Z,22.15
2019-01-26T12:29:45.550Z,23.45
2019-01-26T12:30:50.357Z,20.05
2019-01-26T12:31:54.979Z,21.48
2019-01-26T12:32:59.643Z,22.17
2019-01-26T12:34:05.311Z,25.23
2019-01-26T12:35:11.485Z,21.02
2019-01-26T12:36:16.108Z,19.52
2019-01-26T12:37:20.766Z,18.37
2019-01-26T12:38:25.372Z,17.70
2019-01-26T12:39:30.002Z,17.92
2019-01-26T12:40:34.748Z,18.17
2019-01-26T12:41:39.442Z,22.95
2019-01-26T12:42:44.146Z,16.90
2019-01-26T12:43:48.764Z,20.85
2019-01-26T12:44:53.354Z,19.52
2019-01-26T12:45:58.005Z,20.35
2019-01-26T12:47:02.576Z,17.92
2019-01-26T12:48:07.234Z,16.93
2019-01-26T12:49:12.211Z,16.70
2019-01-26T12:50:17.187Z,19.30
2019-01-26T12:51:21.928Z,15.75
2019-01-26T12:52:26.508Z,17.82
2019-01-26T12:53:31.286Z,16.37
2019-01-26T12:54:35.974Z,17.98
2019-01-26T12:55:40.523Z,20.10
2019-01-26T12:56:45.106Z,21.17
2019-01-26T12:57:49.675Z,19.15
2019-01-26T12:58:54.646Z,16.75
2019-01-26T12:59:59.266Z,17.12
2019-01-26T13:01:04.192Z,16.25
2019-01-26T13:02:09.131Z,13.03
2019-01-26T13:03:13.752Z,17.90
2019-01-26T13:04:18.403Z,20.23
2019-01-26T13:05:23.127Z,20.80
2019-01-26T13:06:27.804Z,31.00
2019-01-26T13:07:32.489Z,21.75
2019-01-26T13:08:37.250Z,34.78
2019-01-26T13:09:41.855Z,21.17
2019-01-26T13:10:49.087Z,13.90
2019-01-26T13:11:53.821Z,42.53
2019-01-26T13:12:58.457Z,39.10
2019-01-26T13:14:03.173Z,15.72
2019-01-26T13:15:15.018Z,32.55
2019-01-26T13:16:15.365Z,18.98
2019-01-26T13:17:19.946Z,33.92
2019-01-26T13:18:24.542Z,20.43
2019-01-26T13:19:29.126Z,20.92
2019-01-26T13:20:33.823Z,16.48
2019-01-26T13:21:38.393Z,11.55
2019-01-26T13:22:43.193Z,14.47
2019-01-26T13:23:47.841Z,16.95
2019-01-26T13:24:52.419Z,31.57
2019-01-26T13:25:57.039Z,19.48
2019-01-26T13:27:01.642Z,16.67
2019-01-26T13:28:06.396Z,14.45
2019-01-26T13:29:11.057Z,9.30
2019-01-26T13:30:17.437Z,26.23
2019-01-26T13:31:22.074Z,13.45
2019-01-26T13:32:26.690Z,20.17
2019-01-26T13:33:31.375Z,13.53
2019-01-26T13:34:36.014Z,14.53
2019-01-26T13:35:40.658Z,13.95
2019-01-26T13:36:45.265Z,10.32
2019-01-26T13:37:49.865Z,8.95
2019-01-26T13:38:54.495Z,12.98
2019-01-26T13:39:59.144Z,8.45
2019-01-26T13:41:03.967Z,10.68
2019-01-26T13:42:08.605Z,23.50
2019-01-26T13:43:13.372Z,13.60
2019-01-26T13:44:18.043Z,10.60
2019-01-26T13:45:22.703Z,15.28
2019-01-26T13:46:27.271Z,10.55
2019-01-26T13:47:37.804Z,8.93
2019-01-26T13:48:38.301Z,13.85
2019-01-26T13:49:44.070Z,7.25
2019-01-26T13:50:48.982Z,9.60
2019-01-26T13:51:53.726Z,15.15
2019-01-26T13:52:58.455Z,8.48
2019-01-26T13:54:03.133Z,13.13
2019-01-26T13:55:10.118Z,22.73
2019-01-26T13:56:14.897Z,15.50
2019-01-26T13:57:19.524Z,9.33
2019-01-26T13:58:24.122Z,9.40
2019-01-26T13:59:28.738Z,10.20
2019-01-26T14:00:33.607Z,8.88